createdAt,value
2022-09-06T00:00:46.572Z,14.1
2022-09-06T00:03:01.834Z,14.1
2022-09-06T00:05:16.959Z,13.8
2022-09-06T00:07:32.096Z,14.1
2022-09-06T00:09:47.509Z,14
2022-09-06T00:12:02.790Z,14.1
2022-09-06T00:14:17.725Z,14.4
2022-09-06T00:16:33.169Z,14.2
2022-09-06T00:18:48.250Z,14.1
2022-09-06T00:21:03.702Z,13.6
2022-09-06T00:23:18.684Z,13.8
2022-09-06T00:25:34.391Z,14.2
2022-09-06T00:27:49.149Z,14
2022-09-06T00:30:04.511Z,13.6
2022-09-06T00:32:19.684Z,13.8
2022-09-06T00:34:34.847Z,13.5
2022-09-06T00:36:50.125Z,14.3
2022-09-06T00:39:05.374Z,14.1
2022-09-06T00:41:20.729Z,13.6
2022-09-06T00:43:35.844Z,13.2
2022-09-06T00:45:51.320Z,13.9
2022-09-06T00:48:06.400Z,13.9
2022-09-06T00:50:21.656Z,13.8
2022-09-06T00:52:36.825Z,13.1
2022-09-06T00:54:52.289Z,13.6
2022-09-06T00:57:07.432Z,14.5
2022-09-06T00:59:22.546Z,14.1
2022-09-06T01:01:37.990Z,13.8
2022-09-06T01:03:53.008Z,13.1
2022-09-06T01:06:08.224Z,14.3
2022-09-06T01:08:23.255Z,12.4
2022-09-06T01:10:38.641Z,13.7
2022-09-06T01:12:53.807Z,13.4
2022-09-06T01:15:09.012Z,13.7
2022-09-06T01:17:24.051Z,12.3
2022-09-06T01:19:39.329Z,14
2022-09-06T01:21:54.727Z,14.2
2022-09-06T01:24:09.867Z,14.4
2022-09-06T01:26:25.283Z,14.4
2022-09-06T01:28:40.374Z,13.9
2022-09-06T01:30:56.081Z,13.7
2022-09-06T01:33:10.987Z,13.5
2022-09-06T01:35:26.373Z,13.3
2022-09-06T01:37:41.714Z,13.3
2022-09-06T01:39:57.004Z,12.9
2022-09-06T01:42:12.041Z,13.5
2022-09-06T01:44:27.202Z,13.3
2022-09-06T01:46:42.580Z,13.6
2022-09-06T01:48:57.581Z,13.9
2022-09-06T01:51:13.181Z,12.3
2022-09-06T01:53:28.093Z,13.5
2022-09-06T01:55:43.522Z,13.6
2022-09-06T01:57:58.679Z,13.5
2022-09-06T02:00:13.812Z,12.3
2022-09-06T02:02:29.098Z,13.6
2022-09-06T02:04:44.175Z,14.1
2022-09-06T02:06:59.625Z,13.6
2022-09-06T02:09:14.869Z,13.9
2022-09-06T02:11:30.326Z,13.7
2022-09-06T02:13:45.398Z,13.4
2022-09-06T02:16:00.726Z,12.8
2022-09-06T02:18:15.884Z,13.8
2022-09-06T02:20:31.371Z,13.6
2022-09-06T02:22:46.445Z,13.6
2022-09-06T02:25:01.950Z,13.4
2022-09-06T02:27:17.140Z,12.9
2022-09-06T02:29:32.262Z,13.6
2022-09-06T02:31:47.475Z,13.1
2022-09-06T02:34:02.277Z,11.8
2022-09-06T02:36:18.045Z,11.4
2022-09-06T02:38:32.890Z,13.2
2022-09-06T02:40:48.276Z,12.5
2022-09-06T02:43:03.225Z,13.4
2022-09-06T02:45:18.518Z,11.4
2022-09-06T02:47:33.694Z,13
2022-09-06T02:49:48.931Z,12.8
2022-09-06T02:52:04.331Z,13.4
2022-09-06T02:54:19.450Z,13.4
2022-09-06T02:56:36.277Z,13.3
2022-09-06T02:58:49.909Z,12.8
2022-09-06T03:01:53.014Z,12.6
2022-09-06T03:04:08.352Z,11.7
2022-09-06T03:06:23.473Z,12.1
2022-09-06T03:08:38.752Z,13.3
2022-09-06T03:10:53.979Z,13.6
2022-09-06T03:13:09.129Z,13.2
2022-09-06T03:15:24.374Z,13.4
2022-09-06T03:17:39.568Z,13.9
2022-09-06T03:19:54.809Z,12.3
2022-09-06T03:22:09.770Z,13.5
2022-09-06T03:24:24.836Z,11.4
2022-09-06T03:26:40.293Z,12.7
2022-09-06T03:28:55.309Z,12.7
2022-09-06T03:31:10.246Z,13.2
2022-09-06T03:33:25.028Z,11.6
2022-09-06T03:35:39.890Z,11.1
2022-09-06T03:37:55.014Z,10.9
2022-09-06T03:40:10.278Z,12.9
2022-09-06T03:42:25.235Z,12.9
2022-09-06T03:44:40.084Z,11.3
2022-09-06T03:46:55.172Z,11.3
2022-09-06T03:49:10.129Z,11.4
2022-09-06T03:51:25.436Z,12.9
2022-09-06T03:53:40.406Z,12.4
2022-09-06T03:55:55.437Z,11.3
2022-09-06T03:58:10.513Z,12.1
2022-09-06T04:00:25.369Z,11.1
2022-09-06T04:02:40.589Z,10.6
2022-09-06T04:04:55.710Z,12.8
2022-09-06T04:07:11.012Z,12.1
2022-09-06T04:09:25.901Z,13.2
2022-09-06T04:11:43.835Z,10.8
2022-09-06T04:13:56.071Z,11.8
2022-09-06T04:16:11.230Z,11
2022-09-06T04:18:26.557Z,12.2
2022-09-06T04:20:41.825Z,11.3
2022-09-06T04:22:56.864Z,12.3
2022-09-06T04:25:12.082Z,12.6
2022-09-06T04:27:27.219Z,13.2
2022-09-06T04:29:42.184Z,11.8
2022-09-06T04:31:57.796Z,13.5
2022-09-06T04:34:12.707Z,14
2022-09-06T04:36:27.983Z,14.4
2022-09-06T04:38:43.185Z,13.9
2022-09-06T04:40:58.344Z,13.8
2022-09-06T04:43:13.619Z,14.6
2022-09-06T04:45:28.587Z,15.1
2022-09-06T04:47:43.558Z,12.7
2022-09-06T04:49:58.832Z,14.5
2022-09-06T04:52:14.268Z,13.1
2022-09-06T04:54:29.432Z,13.8
2022-09-06T04:56:44.558Z,13.6
2022-09-06T04:58:59.779Z,14.4
2022-09-06T05:01:15.106Z,14.6
2022-09-06T05:03:30.155Z,14.9
2022-09-06T05:05:45.370Z,15.3
2022-09-06T05:08:00.380Z,13.9
2022-09-06T05:10:15.686Z,15.4
2022-09-06T05:12:31.162Z,16.3
2022-09-06T05:14:46.374Z,15.9
2022-09-06T05:17:01.850Z,15.3
2022-09-06T05:19:17.026Z,16.9
2022-09-06T05:21:32.443Z,16.2
2022-09-06T05:23:47.686Z,16
2022-09-06T05:26:03.128Z,16.8
2022-09-06T05:28:18.293Z,16.8
2022-09-06T05:30:33.755Z,16.9
2022-09-06T05:32:49.014Z,16.5
2022-09-06T05:35:03.871Z,16.8
2022-09-06T05:37:19.466Z,15.3
2022-09-06T05:39:34.499Z,16.4
2022-09-06T05:41:49.958Z,16.8
2022-09-06T05:44:05.148Z,17.4
2022-09-06T05:46:20.627Z,18.8
2022-09-06T05:48:37.120Z,17.8
2022-09-06T05:50:51.310Z,17.9
2022-09-06T05:53:06.503Z,18.2
2022-09-06T05:55:21.692Z,17.9
2022-09-06T05:57:37.162Z,18.4
2022-09-06T05:59:52.045Z,17.8
2022-09-06T06:02:07.750Z,16.9
2022-09-06T06:04:22.673Z,17.9
2022-09-06T06:06:38.017Z,18.3
2022-09-06T06:08:53.301Z,18.1
2022-09-06T06:11:08.907Z,19.4
2022-09-06T06:13:23.911Z,19.3
2022-09-06T06:15:39.389Z,18.4
2022-09-06T06:17:54.842Z,19.2
2022-09-06T06:20:09.808Z,18.8
2022-09-06T06:22:25.565Z,20.5
2022-09-06T06:24:40.504Z,18.8
2022-09-06T06:26:55.987Z,19.4
2022-09-06T06:29:11.198Z,20.9
2022-09-06T06:31:26.631Z,19.8
2022-09-06T06:33:41.803Z,19.1
2022-09-06T06:35:57.088Z,20.1
2022-09-06T06:38:11.849Z,18
2022-09-06T06:40:27.014Z,18.5
2022-09-06T06:42:42.239Z,20.7
2022-09-06T06:44:57.216Z,19.1
2022-09-06T06:47:12.591Z,20.8
2022-09-06T06:49:27.814Z,21.2
2022-09-06T06:51:43.315Z,21.8
2022-09-06T06:53:58.622Z,21.7
2022-09-06T06:56:14.056Z,22.8
2022-09-06T06:58:29.115Z,23.1
2022-09-06T07:00:44.497Z,21.7
2022-09-06T07:02:59.585Z,23.9
2022-09-06T07:08:40.459Z,23.6
2022-09-06T07:11:30.362Z,22.3
2022-09-06T07:13:45.573Z,23.1
2022-09-06T07:16:00.796Z,22.4
2022-09-06T07:18:16.069Z,25.1
2022-09-06T07:21:51.931Z,26.6
2022-09-06T07:24:41.719Z,24.6
2022-09-06T07:29:46.554Z,25.1
2022-09-06T07:32:35.633Z,25.6
2022-09-06T07:34:50.904Z,27.8
2022-09-06T07:37:06.125Z,27.6
2022-09-06T07:41:36.576Z,28.6
2022-09-06T07:43:51.700Z,28.4
2022-09-06T07:46:06.587Z,29.4
2022-09-06T07:48:55.986Z,28.9
2022-09-06T07:52:00.810Z,29.8
2022-09-06T07:55:08.168Z,26.4
2022-09-06T07:57:23.044Z,29.4
2022-09-06T07:59:41.177Z,31.3
2022-09-06T08:01:52.727Z,27.3
2022-09-06T08:04:07.472Z,26.1
2022-09-06T08:07:42.300Z,25.4
2022-09-06T08:10:32.166Z,27.6
2022-09-06T08:12:46.982Z,28.9
2022-09-06T08:15:01.850Z,29.9
2022-09-06T08:17:16.656Z,30.4
2022-09-06T08:19:32.069Z,30.1
2022-09-06T08:21:46.373Z,29.7
2022-09-06T08:24:01.189Z,29.6
2022-09-06T08:26:16.109Z,29.8
2022-09-06T08:28:30.805Z,29.8
2022-09-06T08:30:45.723Z,30.9
2022-09-06T08:33:00.535Z,31
2022-09-06T08:35:15.384Z,31.1
2022-09-06T08:37:30.609Z,29.9
2022-09-06T08:39:45.438Z,29.6
2022-09-06T08:41:59.907Z,28.8
2022-09-06T08:45:01.409Z,27.9
2022-09-06T08:47:04.041Z,29.9
2022-09-06T08:49:18.806Z,31.8
2022-09-06T08:51:37.927Z,30.9
2022-09-06T08:54:06.955Z,31.8
2022-09-06T08:56:21.174Z,31.7
2022-09-06T08:58:36.078Z,32.3
2022-09-06T09:04:07.609Z,30.9
2022-09-06T09:06:22.461Z,33.1
2022-09-06T09:08:37.262Z,32.8
2022-09-06T09:10:52.142Z,31.9
2022-09-06T09:13:06.997Z,32.2
2022-09-06T09:15:22.333Z,31.9
2022-09-06T09:17:36.629Z,30.4
2022-09-06T09:19:51.480Z,28.9
2022-09-06T09:22:06.357Z,29.7
2022-09-06T09:24:21.147Z,31
2022-09-06T09:26:35.913Z,30.3
2022-09-06T09:28:50.857Z,31.5
2022-09-06T09:31:40.464Z,31.6
2022-09-06T09:33:55.333Z,32.3
2022-09-06T09:36:10.173Z,30.5
2022-09-06T09:39:14.846Z,28.9
2022-09-06T09:41:30.010Z,28.6
2022-09-06T09:43:44.674Z,31.2
2022-09-06T09:45:59.528Z,30.3
2022-09-06T09:48:14.605Z,31.3
2022-09-06T09:50:28.972Z,30.9
2022-09-06T09:52:44.205Z,31.9
2022-09-06T09:54:59.078Z,33.2
2022-09-06T09:57:13.862Z,32.1
2022-09-06T09:59:28.731Z,32.8
2022-09-06T10:01:43.603Z,32.5
2022-09-06T10:07:21.961Z,30.8
2022-09-06T10:09:37.241Z,30.9
2022-09-06T10:11:52.055Z,31.4
2022-09-06T10:14:06.886Z,30.6
2022-09-06T10:16:21.879Z,30.4
2022-09-06T10:18:36.689Z,30.9
2022-09-06T10:20:51.466Z,30.8
2022-09-06T10:23:06.306Z,30.1
2022-09-06T10:26:10.626Z,28.9
2022-09-06T10:28:29.561Z,29.1
2022-09-06T10:30:44.000Z,29.3
2022-09-06T10:32:59.112Z,28.1
2022-09-06T10:35:13.755Z,26.9
2022-09-06T10:37:28.589Z,26.1
2022-09-06T10:39:43.530Z,25.8
2022-09-06T10:41:58.273Z,25.8
2022-09-06T10:44:13.097Z,26.1
2022-09-06T10:46:28.066Z,25.9
2022-09-06T10:48:42.771Z,26.4
2022-09-06T10:50:57.674Z,26.3
2022-09-06T10:53:12.433Z,26.8
2022-09-06T10:55:27.344Z,25.8
2022-09-06T11:01:35.229Z,26.4
2022-09-06T11:07:28.096Z,24.8
2022-09-06T11:10:30.474Z,25.3
2022-09-06T11:12:45.249Z,24.9
2022-09-06T11:15:00.029Z,26.1
2022-09-06T11:17:14.956Z,25.1
2022-09-06T11:19:30.070Z,25.1
2022-09-06T11:21:44.611Z,24.5
2022-09-06T11:23:59.473Z,24.3
2022-09-06T11:26:14.310Z,24.9
2022-09-06T11:28:29.183Z,24.5
2022-09-06T11:30:44.652Z,24.8
2022-09-06T11:33:46.048Z,24.6
2022-09-06T11:36:00.931Z,24.6
2022-09-06T11:38:15.787Z,24.5
2022-09-06T11:41:07.164Z,24.7
2022-09-06T11:43:20.123Z,24.3
2022-09-06T11:45:34.943Z,24.8
2022-09-06T11:47:49.876Z,25.3
2022-09-06T11:50:04.624Z,25
2022-09-06T11:52:20.079Z,23.7
2022-09-06T11:54:34.319Z,24.1
2022-09-06T11:56:49.288Z,24.3
2022-09-06T11:59:04.124Z,23.9
2022-09-06T12:01:18.953Z,23.4
2022-09-06T12:04:10.351Z,24.2
2022-09-06T12:06:25.247Z,24
2022-09-06T12:08:40.572Z,23.6
2022-09-06T12:10:55.162Z,24.4
2022-09-06T12:13:09.724Z,24.4
2022-09-06T12:15:24.569Z,24.5
2022-09-06T12:17:39.463Z,24.1
2022-09-06T12:19:54.166Z,23.4
2022-09-06T12:22:09.011Z,23.4
2022-09-06T12:24:23.929Z,23.3
2022-09-06T12:26:38.730Z,23.4
2022-09-06T12:28:53.627Z,23.9
2022-09-06T12:31:10.982Z,24.3
2022-09-06T12:33:23.840Z,23.9
2022-09-06T12:36:26.389Z,24.5
2022-09-06T12:38:41.285Z,24.2
2022-09-06T12:40:56.298Z,23.8
2022-09-06T12:43:11.083Z,23.7
2022-09-06T12:45:27.483Z,23.9
2022-09-06T12:47:41.127Z,23.3
2022-09-06T12:49:55.965Z,23.3
2022-09-06T12:52:11.040Z,23.1
2022-09-06T12:54:25.999Z,22.9
2022-09-06T12:56:41.381Z,23
2022-09-06T12:58:55.656Z,23.4
2022-09-06T13:01:10.940Z,22.9
2022-09-06T13:03:25.609Z,22.9
2022-09-06T13:05:40.543Z,22.5
2022-09-06T13:07:55.657Z,22.8
2022-09-06T13:10:10.366Z,22.9
2022-09-06T13:12:25.467Z,22.7
2022-09-06T13:14:40.325Z,22.4
2022-09-06T13:16:55.364Z,22.3
2022-09-06T13:19:10.201Z,22.7
2022-09-06T13:21:25.365Z,22.9
2022-09-06T13:23:40.177Z,22.3
2022-09-06T13:25:55.362Z,22.4
2022-09-06T13:28:10.203Z,22.1
2022-09-06T13:30:25.087Z,21.9
2022-09-06T13:32:40.555Z,22
2022-09-06T13:34:55.132Z,22
2022-09-06T13:37:10.579Z,21.8
2022-09-06T13:39:24.872Z,21.8
2022-09-06T13:41:54.325Z,21.9
2022-09-06T13:44:09.115Z,21.5
2022-09-06T13:46:24.257Z,21.6
2022-09-06T13:48:46.439Z,21.5
2022-09-06T13:51:01.374Z,21.3
2022-09-06T13:53:16.152Z,21.2
2022-09-06T13:55:30.987Z,21.4
2022-09-06T13:57:45.871Z,21.3
2022-09-06T14:02:15.574Z,21.3
2022-09-06T14:04:30.391Z,21.6
2022-09-06T14:06:45.164Z,21.4
2022-09-06T14:09:10.869Z,21.5
2022-09-06T14:11:25.444Z,21.3
2022-09-06T14:13:40.175Z,21.4
2022-09-06T14:15:55.174Z,20.9
2022-09-06T14:18:13.854Z,20.8
2022-09-06T14:20:24.698Z,20.9
2022-09-06T14:22:39.592Z,20.9
2022-09-06T14:24:54.677Z,21.1
2022-09-06T14:27:09.471Z,20.8
2022-09-06T14:29:24.430Z,20.6
2022-09-06T14:31:39.393Z,20.8
2022-09-06T14:33:54.297Z,20.8
2022-09-06T14:36:09.471Z,20.6
2022-09-06T14:38:24.258Z,21.1
2022-09-06T14:40:39.114Z,20.7
2022-09-06T14:42:54.191Z,20.7
2022-09-06T14:45:09.197Z,20.4
2022-09-06T14:47:24.175Z,20.6
2022-09-06T14:49:39.032Z,21.1
2022-09-06T14:51:53.959Z,20.6
2022-09-06T14:54:17.888Z,20.8
2022-09-06T14:56:32.754Z,21.1
2022-09-06T14:58:47.542Z,20.6
2022-09-06T15:01:52.109Z,23.2
2022-09-06T15:04:06.991Z,23.1
2022-09-06T15:06:21.858Z,20.9
2022-09-06T15:08:36.651Z,20.7
2022-09-06T15:10:51.639Z,20.6
2022-09-06T15:13:06.303Z,20.8
2022-09-06T15:15:20.766Z,20.5
2022-09-06T15:17:35.414Z,22.1
2022-09-06T15:19:50.850Z,22.4
2022-09-06T15:22:05.751Z,21
2022-09-06T15:24:38.491Z,21.6
2022-09-06T15:26:53.305Z,23.9
2022-09-06T15:29:07.997Z,22.4
2022-09-06T15:31:22.834Z,23.1
2022-09-06T15:33:37.668Z,23
2022-09-06T15:35:52.798Z,22.3
2022-09-06T15:38:07.486Z,22.8
2022-09-06T15:40:25.986Z,20.4
2022-09-06T15:42:44.321Z,23.6
2022-09-06T15:45:01.197Z,23.3
2022-09-06T15:47:14.020Z,22.1
2022-09-06T15:49:28.876Z,24.1
2022-09-06T15:51:52.458Z,23.9
2022-09-06T15:54:07.561Z,21
2022-09-06T15:56:22.775Z,20.9
2022-09-06T15:58:37.960Z,20.5
2022-09-06T16:00:54.127Z,19.6
2022-09-06T16:03:08.379Z,20
2022-09-06T16:08:24.960Z,20.4
2022-09-06T16:10:40.186Z,19.6
2022-09-06T16:12:55.106Z,19.6
2022-09-06T16:15:09.944Z,20.3
2022-09-06T16:17:25.113Z,19.5
2022-09-06T16:19:40.318Z,20.1
2022-09-06T16:21:55.444Z,20
2022-09-06T16:24:10.451Z,19.3
2022-09-06T16:26:25.327Z,19.1
2022-09-06T16:28:40.555Z,18.9
2022-09-06T16:30:55.889Z,19.4
2022-09-06T16:33:29.325Z,19.9
2022-09-06T16:35:45.059Z,19.8
2022-09-06T16:38:00.297Z,19.5
2022-09-06T16:40:23.170Z,20.1
2022-09-06T16:42:37.752Z,19.1
2022-09-06T16:44:53.535Z,19.6
2022-09-06T16:47:08.518Z,19.3
2022-09-06T16:49:23.671Z,19
2022-09-06T16:51:38.830Z,19.2
2022-09-06T16:53:54.098Z,19.8
2022-09-06T16:56:09.345Z,19.4
2022-09-06T16:58:24.476Z,19.6
2022-09-06T17:00:39.675Z,19.5
2022-09-06T21:01:52.267Z,16.8
2022-09-06T21:04:07.367Z,16.8
2022-09-06T21:06:23.091Z,16.3
2022-09-06T21:08:41.952Z,16.6
2022-09-06T21:11:00.385Z,16
2022-09-06T21:13:15.502Z,16.1
2022-09-06T21:15:30.384Z,16.4
2022-09-06T21:17:45.461Z,15.3
2022-09-06T21:20:00.699Z,15.9
2022-09-06T21:22:16.165Z,17.4
2022-09-06T21:24:31.286Z,16.7
2022-09-06T21:26:46.711Z,16.1
2022-09-06T21:29:01.370Z,15.8
2022-09-06T21:31:17.462Z,16.5
2022-09-06T21:33:32.602Z,16
2022-09-06T21:35:47.948Z,16.1
2022-09-06T21:38:03.122Z,16.8
2022-09-06T21:40:18.676Z,16
2022-09-06T21:42:33.793Z,16.3
2022-09-06T21:44:49.011Z,15.8
2022-09-06T21:47:04.286Z,16.4
2022-09-06T21:49:18.972Z,15.1
2022-09-06T21:51:33.853Z,14.8
2022-09-06T21:53:49.427Z,15.8
2022-09-06T21:56:05.047Z,14.9
2022-09-06T21:58:19.972Z,16.9
2022-09-06T22:00:35.387Z,16.6
2022-09-06T22:02:50.514Z,16.1
2022-09-06T22:05:05.768Z,16.9
2022-09-06T22:07:21.210Z,15.4
2022-09-06T22:09:36.281Z,16
2022-09-06T22:11:51.880Z,16.5
2022-09-06T22:14:07.049Z,15.9
2022-09-06T22:16:23.005Z,15.8
2022-09-06T22:18:37.674Z,16
2022-09-06T22:20:53.508Z,15.4
2022-09-06T22:23:08.148Z,15.9
2022-09-06T22:25:23.510Z,15.5
2022-09-06T22:27:38.221Z,14.4
2022-09-06T22:29:53.381Z,14.4
2022-09-06T22:32:14.566Z,15.8
2022-09-06T22:34:29.598Z,15.4
2022-09-06T22:36:44.637Z,14.8
2022-09-06T22:38:59.379Z,14.4
